createdAt,value
2018-11-27T00:00:45.498Z,935.59
2018-11-27T00:01:53.519Z,935.66
2018-11-27T00:03:01.614Z,935.63
2018-11-27T00:04:09.672Z,935.63
2018-11-27T00:05:17.719Z,935.65
2018-11-27T00:06:25.785Z,935.68
2018-11-27T00:07:33.820Z,935.67
2018-11-27T00:08:41.994Z,935.67
2018-11-27T00:09:49.969Z,935.70
2018-11-27T00:10:58.004Z,935.74
2018-11-27T00:12:06.078Z,935.74
2018-11-27T00:13:14.579Z,935.70
2018-11-27T00:14:22.193Z,935.78
2018-11-27T00:15:30.259Z,935.76
2018-11-27T00:16:38.305Z,935.82
2018-11-27T00:17:46.374Z,935.79
2018-11-27T00:18:54.525Z,935.86
2018-11-27T00:20:02.467Z,935.82
2018-11-27T00:21:10.541Z,935.85
2018-11-27T00:22:18.603Z,935.85
2018-11-27T00:23:26.755Z,935.78
2018-11-27T00:24:34.821Z,935.84
2018-11-27T00:25:42.772Z,935.82
2018-11-27T00:26:50.820Z,935.79
2018-11-27T00:27:58.892Z,935.85
2018-11-27T00:29:06.959Z,935.85
2018-11-27T00:30:15.101Z,935.84
2018-11-27T00:31:23.059Z,935.89
2018-11-27T00:32:31.130Z,935.88
2018-11-27T00:33:39.187Z,935.85
2018-11-27T00:34:47.230Z,935.87
2018-11-27T00:35:55.401Z,935.83
2018-11-27T00:37:03.344Z,935.85
2018-11-27T00:38:11.417Z,935.86
2018-11-27T00:39:19.595Z,935.88
2018-11-27T00:40:27.529Z,935.88
2018-11-27T00:41:35.691Z,935.86
2018-11-27T00:42:43.655Z,935.89
2018-11-27T00:43:51.728Z,935.90
2018-11-27T00:44:59.772Z,935.93
2018-11-27T00:46:07.815Z,935.90
2018-11-27T00:47:15.990Z,935.94
2018-11-27T00:48:23.936Z,935.94
2018-11-27T00:49:32.003Z,935.95
2018-11-27T00:50:40.073Z,935.97
2018-11-27T00:51:48.129Z,935.95
2018-11-27T00:52:56.264Z,935.95
2018-11-27T00:54:04.225Z,936.01
2018-11-27T00:55:12.395Z,936.00
2018-11-27T00:56:20.347Z,936.02
2018-11-27T00:57:28.509Z,936.05
2018-11-27T00:58:36.485Z,936.06
2018-11-27T00:59:44.531Z,936.09
2018-11-27T01:00:52.581Z,936.12
2018-11-27T01:02:00.651Z,936.12
2018-11-27T01:03:08.808Z,936.14
2018-11-27T01:04:16.771Z,936.15
2018-11-27T01:05:24.837Z,936.16
2018-11-27T01:06:32.881Z,936.16
2018-11-27T01:07:40.938Z,936.21
2018-11-27T01:08:49.110Z,936.18
2018-11-27T01:09:57.053Z,936.18
2018-11-27T01:11:05.569Z,936.20
2018-11-27T01:12:13.156Z,936.21
2018-11-27T01:13:21.244Z,936.20
2018-11-27T01:14:29.378Z,936.22
2018-11-27T01:15:37.352Z,936.25
2018-11-27T01:16:45.414Z,936.29
2018-11-27T01:17:53.440Z,936.32
2018-11-27T01:19:01.625Z,936.31
2018-11-27T01:20:09.663Z,936.35
2018-11-27T01:21:17.634Z,936.30
2018-11-27T01:22:25.699Z,936.31
2018-11-27T01:23:33.732Z,936.33
2018-11-27T01:24:41.822Z,936.34
2018-11-27T01:25:49.985Z,936.32
2018-11-27T01:26:58.018Z,936.33
2018-11-27T01:28:06.011Z,936.38
2018-11-27T01:29:14.026Z,936.36
2018-11-27T01:30:22.091Z,936.36
2018-11-27T01:31:30.410Z,936.37
2018-11-27T01:32:38.223Z,936.40
2018-11-27T01:33:46.281Z,936.39
2018-11-27T01:34:54.310Z,936.40
2018-11-27T01:36:02.390Z,936.38
2018-11-27T01:37:10.550Z,936.37
2018-11-27T01:38:18.514Z,936.39
2018-11-27T01:39:26.576Z,936.39
2018-11-27T01:40:34.614Z,936.39
2018-11-27T01:41:42.685Z,936.36
2018-11-27T01:42:50.849Z,936.40
2018-11-27T01:43:58.804Z,936.40
2018-11-27T01:45:06.869Z,936.38
2018-11-27T01:46:14.923Z,936.41
2018-11-27T01:47:22.998Z,936.41
2018-11-27T01:48:31.139Z,936.43
2018-11-27T01:49:39.102Z,936.42
2018-11-27T01:50:47.152Z,936.41
2018-11-27T01:51:55.224Z,936.44
2018-11-27T01:53:03.343Z,936.44
2018-11-27T01:54:11.336Z,936.49
2018-11-27T01:55:19.394Z,936.44
2018-11-27T01:56:27.599Z,936.46
2018-11-27T01:57:35.596Z,936.47
2018-11-27T01:58:43.609Z,936.47
2018-11-27T01:59:51.638Z,936.46
2018-11-27T02:00:59.693Z,936.47
2018-11-27T02:02:07.742Z,936.49
2018-11-27T02:03:15.811Z,936.48
2018-11-27T02:04:23.944Z,936.47
2018-11-27T02:05:31.919Z,936.46
2018-11-27T02:06:39.966Z,936.46
2018-11-27T02:07:48.024Z,936.46
2018-11-27T02:08:56.083Z,936.46
2018-11-27T02:10:04.174Z,936.48
2018-11-27T02:11:12.210Z,936.48
2018-11-27T02:12:20.260Z,936.53
2018-11-27T02:13:28.410Z,936.53
2018-11-27T02:14:36.401Z,936.52
2018-11-27T02:15:44.521Z,936.51
2018-11-27T02:16:52.507Z,936.54
2018-11-27T02:18:00.552Z,936.55
2018-11-27T02:19:08.626Z,936.54
2018-11-27T02:20:16.678Z,936.53
2018-11-27T02:21:24.835Z,936.54
2018-11-27T02:22:32.786Z,936.51
2018-11-27T02:23:40.841Z,936.54
2018-11-27T02:24:48.907Z,936.56
2018-11-27T02:25:56.959Z,936.56
2018-11-27T02:27:05.110Z,936.56
2018-11-27T02:28:13.168Z,936.58
2018-11-27T02:29:21.131Z,936.62
2018-11-27T02:30:32.423Z,936.61
2018-11-27T02:31:37.257Z,936.62
2018-11-27T02:32:45.425Z,936.63
2018-11-27T02:33:53.387Z,936.62
2018-11-27T02:35:01.431Z,936.61
2018-11-27T02:36:09.505Z,936.65
2018-11-27T02:37:17.558Z,936.62
2018-11-27T02:38:25.651Z,936.70
2018-11-27T02:39:33.662Z,936.69
2018-11-27T02:40:41.742Z,936.73
2018-11-27T02:41:49.777Z,936.72
2018-11-27T02:42:57.934Z,936.66
2018-11-27T02:44:05.981Z,936.68
2018-11-27T02:45:13.941Z,936.67
2018-11-27T02:46:22.019Z,936.66
2018-11-27T02:47:30.076Z,936.70
2018-11-27T02:48:38.223Z,936.67
2018-11-27T02:49:46.214Z,936.64
2018-11-27T02:50:54.227Z,936.66
2018-11-27T02:52:02.307Z,936.70
2018-11-27T02:53:10.366Z,936.70
2018-11-27T02:54:18.669Z,936.71
2018-11-27T02:55:26.477Z,936.70
2018-11-27T02:56:34.555Z,936.75
2018-11-27T02:57:42.601Z,936.74
2018-11-27T02:58:50.676Z,936.78
2018-11-27T02:59:58.965Z,936.76
2018-11-27T03:01:06.796Z,936.78
2018-11-27T03:02:14.841Z,936.80
2018-11-27T03:03:22.886Z,936.79
2018-11-27T03:04:30.948Z,936.82
2018-11-27T03:05:39.108Z,936.81
2018-11-27T03:06:47.110Z,936.79
2018-11-27T03:07:55.134Z,936.80
2018-11-27T03:09:03.182Z,936.82
2018-11-27T03:10:11.243Z,936.81
2018-11-27T03:11:19.404Z,936.87
2018-11-27T03:12:27.346Z,936.84
2018-11-27T03:13:35.414Z,936.87
2018-11-27T03:14:43.450Z,936.87
2018-11-27T03:15:51.631Z,936.88
2018-11-27T03:16:59.693Z,936.88
2018-11-27T03:18:07.659Z,936.85
2018-11-27T03:19:15.709Z,936.87
2018-11-27T03:20:23.755Z,936.93
2018-11-27T03:21:31.836Z,936.90
2018-11-27T03:22:39.947Z,936.93
2018-11-27T03:23:47.958Z,936.93
2018-11-27T03:24:56.001Z,936.94
2018-11-27T03:26:04.033Z,936.99
2018-11-27T03:27:12.110Z,937.02
2018-11-27T03:28:20.258Z,937.02
2018-11-27T03:29:28.224Z,937.00
2018-11-27T03:30:36.293Z,937.01
2018-11-27T03:31:44.441Z,937.01
2018-11-27T03:32:52.421Z,937.03
2018-11-27T03:34:00.570Z,937.02
2018-11-27T03:35:08.534Z,937.04
2018-11-27T03:36:16.602Z,937.01
2018-11-27T03:37:24.636Z,937.03
2018-11-27T03:38:32.689Z,937.03
2018-11-27T03:39:40.837Z,937.09
2018-11-27T03:40:48.810Z,937.05
2018-11-27T03:41:56.865Z,937.08
2018-11-27T03:43:04.931Z,937.07
2018-11-27T03:44:12.985Z,937.10
2018-11-27T03:45:21.135Z,937.11
2018-11-27T03:46:29.100Z,937.10
2018-11-27T03:47:37.254Z,937.12
2018-11-27T03:48:45.211Z,937.12
2018-11-27T03:49:53.268Z,937.15
2018-11-27T03:51:01.452Z,937.16
2018-11-27T03:52:09.391Z,937.16
2018-11-27T03:53:17.460Z,937.13
2018-11-27T03:54:25.505Z,937.14
2018-11-27T03:55:33.544Z,937.14
2018-11-27T03:56:41.713Z,937.16
2018-11-27T03:57:49.678Z,937.15
2018-11-27T03:58:57.745Z,937.14
2018-11-27T04:00:05.824Z,937.19
2018-11-27T04:01:13.828Z,937.19
2018-11-27T04:02:22.005Z,937.19
2018-11-27T04:03:29.976Z,937.26
2018-11-27T04:04:38.031Z,937.26
2018-11-27T04:05:46.113Z,937.29
2018-11-27T04:06:54.129Z,937.25
2018-11-27T04:08:02.291Z,937.27
2018-11-27T04:09:10.272Z,937.27
2018-11-27T04:10:18.314Z,937.28
2018-11-27T04:11:26.381Z,937.28
2018-11-27T04:12:34.522Z,937.28
2018-11-27T04:13:42.536Z,937.30
2018-11-27T04:14:50.546Z,937.27
2018-11-27T04:15:58.621Z,937.36
2018-11-27T04:17:06.676Z,937.32
2018-11-27T04:18:14.819Z,937.37
2018-11-27T04:19:22.791Z,937.42
2018-11-27T04:20:32.288Z,937.44
2018-11-27T04:21:38.905Z,937.44
2018-11-27T04:22:47.065Z,937.47
2018-11-27T04:23:55.022Z,937.44
2018-11-27T04:25:03.094Z,937.45
2018-11-27T04:26:11.150Z,937.44
2018-11-27T04:27:19.197Z,937.45
2018-11-27T04:28:27.345Z,937.45
2018-11-27T04:29:35.308Z,937.44
2018-11-27T04:30:43.357Z,937.44
2018-11-27T04:31:51.430Z,937.46
2018-11-27T04:32:59.541Z,937.45
2018-11-27T04:34:07.685Z,937.44
2018-11-27T04:35:15.602Z,937.46
2018-11-27T04:36:23.638Z,937.47
2018-11-27T04:37:31.723Z,937.47
2018-11-27T04:38:39.781Z,937.49
2018-11-27T04:39:47.936Z,937.51
2018-11-27T04:40:55.891Z,937.56
2018-11-27T04:42:03.921Z,937.58
2018-11-27T04:43:12.017Z,937.59
2018-11-27T04:44:20.057Z,937.62
2018-11-27T04:45:28.211Z,937.59
2018-11-27T04:46:36.182Z,937.62
2018-11-27T04:47:44.345Z,937.61
2018-11-27T04:48:52.652Z,937.63
2018-11-27T04:50:00.379Z,937.64
2018-11-27T04:51:08.860Z,937.67
2018-11-27T04:52:16.687Z,937.70
2018-11-27T04:53:24.531Z,937.73
2018-11-27T04:54:32.585Z,937.71
2018-11-27T04:55:40.645Z,937.71
2018-11-27T04:56:48.797Z,937.73
2018-11-27T04:57:56.769Z,937.73
2018-11-27T04:59:04.864Z,937.73
2018-11-27T05:00:12.901Z,937.74
2018-11-27T05:01:20.946Z,937.75
2018-11-27T05:02:30.258Z,937.68
2018-11-27T05:03:37.051Z,937.72
2018-11-27T05:04:45.122Z,937.74
2018-11-27T05:05:53.256Z,937.75
2018-11-27T05:07:01.227Z,937.75
2018-11-27T05:08:09.385Z,937.78
2018-11-27T05:09:17.365Z,937.81
2018-11-27T05:10:25.402Z,937.82
2018-11-27T05:11:33.437Z,937.81
2018-11-27T05:12:41.609Z,937.82
2018-11-27T05:13:49.566Z,937.81
2018-11-27T05:14:57.626Z,937.80
2018-11-27T05:16:05.688Z,937.80
2018-11-27T05:17:13.727Z,937.84
2018-11-27T05:18:22.429Z,937.83
2018-11-27T05:19:29.878Z,937.81
2018-11-27T05:20:38.340Z,937.77
2018-11-27T05:21:46.244Z,937.79
2018-11-27T05:22:54.015Z,937.79
2018-11-27T05:24:02.160Z,937.78
2018-11-27T05:25:10.135Z,937.79
2018-11-27T05:26:18.212Z,937.78
2018-11-27T05:27:26.357Z,937.80
2018-11-27T05:28:34.349Z,937.78
2018-11-27T05:29:42.482Z,937.83
2018-11-27T05:30:50.424Z,937.82
2018-11-27T05:31:58.502Z,937.85
2018-11-27T05:33:06.554Z,937.89
2018-11-27T05:34:14.711Z,937.88
2018-11-27T05:35:22.923Z,937.91
2018-11-27T05:36:30.718Z,937.94
2018-11-27T05:37:39.558Z,937.91
2018-11-27T05:38:46.840Z,937.96
2018-11-27T05:39:54.892Z,937.93
2018-11-27T05:41:03.051Z,937.94
2018-11-27T05:42:11.011Z,937.99
2018-11-27T05:43:19.089Z,937.96
2018-11-27T05:44:27.135Z,937.98
2018-11-27T05:45:35.199Z,938.02
2018-11-27T05:46:43.325Z,938.06
2018-11-27T05:47:51.318Z,938.05
2018-11-27T05:48:59.359Z,938.03
2018-11-27T05:50:07.419Z,938.03
2018-11-27T05:51:15.468Z,938.10
2018-11-27T05:52:23.606Z,938.11
2018-11-27T05:53:31.916Z,938.11
2018-11-27T05:54:39.657Z,938.15
2018-11-27T05:55:47.897Z,938.16
2018-11-27T05:56:55.795Z,938.20
2018-11-27T05:58:03.890Z,938.21
2018-11-27T05:59:11.871Z,938.19
2018-11-27T06:00:19.931Z,938.25
2018-11-27T06:01:27.985Z,938.27
2018-11-27T06:02:36.151Z,938.30
2018-11-27T06:03:44.089Z,938.31
2018-11-27T06:04:52.159Z,938.33
2018-11-27T06:06:00.221Z,938.29
2018-11-27T06:07:08.785Z,938.28
2018-11-27T06:08:16.586Z,938.28
2018-11-27T06:09:24.391Z,938.27
2018-11-27T06:10:32.450Z,938.33
2018-11-27T06:11:40.509Z,938.33
2018-11-27T06:12:48.661Z,938.37
2018-11-27T06:13:56.635Z,938.39
2018-11-27T06:15:04.685Z,938.40
2018-11-27T06:16:13.190Z,938.40
2018-11-27T06:17:20.785Z,938.41
2018-11-27T06:18:28.854Z,938.45
2018-11-27T06:19:36.917Z,938.45
2018-11-27T06:20:44.975Z,938.42
2018-11-27T06:21:53.058Z,938.39
2018-11-27T06:23:01.953Z,938.41
2018-11-27T06:24:09.271Z,938.43
2018-11-27T06:25:17.208Z,938.48
2018-11-27T06:26:25.263Z,938.48
2018-11-27T06:27:33.302Z,938.49
2018-11-27T06:28:41.465Z,938.51
2018-11-27T06:29:49.424Z,938.56
2018-11-27T06:30:57.503Z,938.56
2018-11-27T06:32:05.559Z,938.59
2018-11-27T06:33:13.605Z,938.63
2018-11-27T06:34:21.776Z,938.66
2018-11-27T06:35:29.725Z,938.65
2018-11-27T06:36:37.792Z,938.70
2018-11-27T06:37:45.842Z,938.68
2018-11-27T06:38:53.977Z,938.69
2018-11-27T06:40:02.073Z,938.67
2018-11-27T06:41:10.024Z,938.69
2018-11-27T06:42:18.071Z,938.67
2018-11-27T06:43:26.129Z,938.69
2018-11-27T06:44:34.161Z,938.71
2018-11-27T06:45:42.352Z,938.75
2018-11-27T06:46:50.341Z,938.74
2018-11-27T06:47:58.364Z,938.74
2018-11-27T06:49:06.431Z,938.78
2018-11-27T06:50:14.468Z,938.81
2018-11-27T06:51:22.633Z,938.84
2018-11-27T06:52:30.597Z,938.88
2018-11-27T06:53:38.646Z,938.87
2018-11-27T06:54:46.806Z,938.89
2018-11-27T06:55:54.770Z,938.91
2018-11-27T06:57:02.833Z,938.88
2018-11-27T06:58:10.920Z,938.87
2018-11-27T06:59:18.945Z,938.87
2018-11-27T07:00:27.002Z,938.89
2018-11-27T07:01:35.160Z,938.93
2018-11-27T07:02:43.177Z,938.92
2018-11-27T07:03:51.178Z,938.93
2018-11-27T07:04:59.237Z,938.95
2018-11-27T07:06:07.287Z,938.94
2018-11-27T07:07:15.454Z,938.96
2018-11-27T07:08:23.562Z,938.98
2018-11-27T07:09:31.493Z,939.03
2018-11-27T07:10:39.770Z,939.06
2018-11-27T07:11:47.585Z,939.06
2018-11-27T07:12:55.744Z,939.06
2018-11-27T07:14:03.701Z,939.11
2018-11-27T07:15:11.763Z,939.10
2018-11-27T07:16:19.821Z,939.12
2018-11-27T07:17:27.924Z,939.16
2018-11-27T07:18:35.937Z,939.17
2018-11-27T07:19:43.967Z,939.17
2018-11-27T07:20:52.070Z,939.18
2018-11-27T07:22:00.113Z,939.19
2018-11-27T07:23:08.210Z,939.22
2018-11-27T07:24:16.232Z,939.23
2018-11-27T07:25:24.269Z,939.25
2018-11-27T07:26:32.526Z,939.25
2018-11-27T07:27:40.492Z,939.32
2018-11-27T07:28:48.460Z,939.28
2018-11-27T07:29:56.537Z,939.32
2018-11-27T07:31:04.589Z,939.34
2018-11-27T07:32:12.645Z,939.37
2018-11-27T07:33:20.794Z,939.34
2018-11-27T07:34:28.762Z,939.38
2018-11-27T07:35:36.876Z,939.42
2018-11-27T07:36:44.878Z,939.40
2018-11-27T07:37:52.928Z,939.38
2018-11-27T07:39:01.119Z,939.46
2018-11-27T07:40:09.093Z,939.42
2018-11-27T07:41:17.107Z,939.47
2018-11-27T07:42:25.272Z,939.53
2018-11-27T07:43:33.217Z,939.53
2018-11-27T07:44:41.736Z,939.56
2018-11-27T07:45:49.355Z,939.58
2018-11-27T07:46:57.395Z,939.60
2018-11-27T07:48:05.451Z,939.65
2018-11-27T07:49:13.601Z,939.62
2018-11-27T07:50:21.743Z,939.65
2018-11-27T07:51:29.725Z,939.67
2018-11-27T07:52:37.746Z,939.69
2018-11-27T07:53:45.745Z,939.69
2018-11-27T07:54:53.875Z,939.71
2018-11-27T07:56:02.059Z,939.72
2018-11-27T07:57:10.011Z,939.76
2018-11-27T07:58:18.270Z,939.79
2018-11-27T07:59:26.117Z,939.78
2018-11-27T08:00:34.224Z,939.82
2018-11-27T08:01:42.448Z,939.83
2018-11-27T08:02:50.309Z,939.85
2018-11-27T08:03:58.321Z,939.86
2018-11-27T08:05:06.333Z,939.86
2018-11-27T08:06:14.483Z,939.88
2018-11-27T08:07:22.695Z,939.88
2018-11-27T08:08:30.722Z,939.92
2018-11-27T08:09:38.675Z,939.94
2018-11-27T08:10:46.672Z,939.91
2018-11-27T08:11:54.784Z,939.94
2018-11-27T08:13:02.835Z,939.94
2018-11-27T08:14:10.809Z,939.97
2018-11-27T08:15:18.939Z,940.01
2018-11-27T08:16:27.015Z,940.03
2018-11-27T08:17:35.155Z,940.01
2018-11-27T08:18:43.037Z,940.03
2018-11-27T08:19:51.090Z,940.03
2018-11-27T08:20:59.246Z,940.06
2018-11-27T08:22:07.211Z,940.06
2018-11-27T08:23:15.542Z,940.08
2018-11-27T08:24:23.401Z,940.09
2018-11-27T08:25:31.459Z,940.11
2018-11-27T08:26:39.526Z,940.10
2018-11-27T08:27:47.698Z,940.11
2018-11-27T08:28:55.568Z,940.15
2018-11-27T08:30:03.648Z,940.14
2018-11-27T08:31:11.808Z,940.13
2018-11-27T08:32:19.737Z,940.13
2018-11-27T08:33:28.044Z,940.20
2018-11-27T08:34:35.955Z,940.14
2018-11-27T08:35:43.888Z,940.19
2018-11-27T08:36:52.086Z,940.16
2018-11-27T08:38:00.136Z,940.21
2018-11-27T08:39:08.085Z,940.17
2018-11-27T08:40:16.230Z,940.21
2018-11-27T08:41:24.236Z,940.20
2018-11-27T08:42:32.560Z,940.21
2018-11-27T08:43:40.498Z,940.25
2018-11-27T08:44:48.453Z,940.26
2018-11-27T08:45:56.530Z,940.32
2018-11-27T08:47:04.768Z,940.33
2018-11-27T08:48:12.561Z,940.33
2018-11-27T08:49:20.723Z,940.33
2018-11-27T08:50:28.730Z,940.37
2018-11-27T08:51:36.747Z,940.37
2018-11-27T08:52:46.772Z,940.41
2018-11-27T08:53:52.858Z,940.41
2018-11-27T08:55:01.066Z,940.49
2018-11-27T08:56:09.015Z,940.43
2018-11-27T08:57:17.124Z,940.49
2018-11-27T08:58:25.285Z,940.50
2018-11-27T08:59:33.149Z,940.50
2018-11-27T09:00:41.313Z,940.50
2018-11-27T09:01:49.355Z,940.53
2018-11-27T09:02:57.323Z,940.53
2018-11-27T09:04:05.400Z,940.53
2018-11-27T09:05:13.441Z,940.58
2018-11-27T09:06:21.691Z,940.57
2018-11-27T09:07:29.612Z,940.60
2018-11-27T09:08:37.639Z,940.60
2018-11-27T09:09:45.687Z,940.60
2018-11-27T09:10:53.827Z,940.61
2018-11-27T09:12:02.107Z,940.64
2018-11-27T09:13:10.070Z,940.60
2018-11-27T09:14:18.017Z,940.59
2018-11-27T09:15:26.075Z,940.58
2018-11-27T09:16:34.154Z,940.62
2018-11-27T09:17:42.308Z,940.61
2018-11-27T09:18:50.250Z,940.59
2018-11-27T09:19:58.221Z,940.62
2018-11-27T09:21:06.378Z,940.65
2018-11-27T09:22:14.421Z,940.63
2018-11-27T09:23:22.547Z,940.69
2018-11-27T09:24:30.582Z,940.69
2018-11-27T09:25:38.629Z,940.72
2018-11-27T09:26:46.688Z,940.78
2018-11-27T09:27:54.778Z,940.71
2018-11-27T09:29:02.864Z,940.79
2018-11-27T09:30:10.770Z,940.78
2018-11-27T09:31:18.937Z,940.82
2018-11-27T09:32:26.885Z,940.79
2018-11-27T09:33:35.047Z,940.80
2018-11-27T09:34:43.005Z,940.80
2018-11-27T09:35:51.173Z,940.82
2018-11-27T09:36:59.125Z,940.80
2018-11-27T09:38:07.283Z,940.85
2018-11-27T09:39:15.334Z,940.81
2018-11-27T09:40:23.308Z,940.84
2018-11-27T09:41:31.502Z,940.87
2018-11-27T09:42:39.725Z,940.86
2018-11-27T09:43:47.565Z,940.91
2018-11-27T09:44:55.742Z,940.87
2018-11-27T09:46:03.579Z,940.87
2018-11-27T09:47:11.782Z,940.92
2018-11-27T09:48:19.918Z,940.89
2018-11-27T09:49:27.890Z,940.87
2018-11-27T09:50:35.880Z,940.88
2018-11-27T09:51:43.884Z,940.86
2018-11-27T09:52:52.077Z,940.88
2018-11-27T09:54:00.153Z,940.90
2018-11-27T09:55:08.176Z,940.86
2018-11-27T09:56:16.190Z,940.92
2018-11-27T09:57:24.190Z,940.96
2018-11-27T09:58:32.356Z,940.95
2018-11-27T09:59:40.519Z,940.92
2018-11-27T10:00:48.638Z,940.96
2018-11-27T10:01:56.539Z,940.99
2018-11-27T10:03:04.618Z,940.97
2018-11-27T10:04:12.549Z,940.96
2018-11-27T10:05:20.671Z,940.96
2018-11-27T10:06:28.774Z,940.98
2018-11-27T10:07:36.847Z,940.95
2018-11-27T10:08:44.935Z,940.94
2018-11-27T10:09:52.949Z,940.92
2018-11-27T10:11:01.113Z,940.96
2018-11-27T10:12:09.022Z,940.91
2018-11-27T10:13:17.088Z,940.92
2018-11-27T10:14:25.115Z,940.94
2018-11-27T10:15:33.275Z,940.99
2018-11-27T10:16:41.429Z,941.03
2018-11-27T10:17:49.419Z,941.04
2018-11-27T10:18:57.469Z,941.02
2018-11-27T10:20:05.617Z,941.04
2018-11-27T10:21:13.441Z,941.03
2018-11-27T10:22:21.676Z,941.02
2018-11-27T10:23:29.689Z,941.04
2018-11-27T10:24:37.649Z,941.04
2018-11-27T10:25:45.804Z,941.07
2018-11-27T10:26:53.845Z,941.05
2018-11-27T10:28:01.914Z,941.05
2018-11-27T10:29:09.883Z,941.04
2018-11-27T10:30:18.036Z,941.03
2018-11-27T10:31:26.085Z,940.99
2018-11-27T10:32:34.363Z,940.97
2018-11-27T10:33:42.119Z,940.96
2018-11-27T10:34:50.288Z,941.00
2018-11-27T10:35:58.336Z,940.97
2018-11-27T10:37:06.321Z,940.97
2018-11-27T10:38:14.463Z,940.95
2018-11-27T10:39:22.499Z,940.98
2018-11-27T10:40:30.593Z,940.95
2018-11-27T10:41:38.628Z,940.96
2018-11-27T10:42:46.838Z,940.93
2018-11-27T10:43:54.731Z,940.94
2018-11-27T10:45:02.829Z,940.96
2018-11-27T10:46:10.880Z,940.95
2018-11-27T10:47:18.923Z,940.99
2018-11-27T10:48:27.124Z,940.97
2018-11-27T10:49:34.966Z,940.94
2018-11-27T10:50:43.096Z,940.97
2018-11-27T10:51:51.080Z,940.97
2018-11-27T10:52:59.233Z,941.00
2018-11-27T10:54:07.430Z,941.03
2018-11-27T10:55:15.350Z,941.04
2018-11-27T10:56:23.305Z,941.04
2018-11-27T10:57:31.592Z,941.08
2018-11-27T10:58:39.487Z,941.07
2018-11-27T10:59:47.704Z,941.10
2018-11-27T11:00:55.609Z,941.07
2018-11-27T11:02:03.715Z,941.08
2018-11-27T11:03:11.841Z,941.14
2018-11-27T11:04:19.743Z,941.14
2018-11-27T11:05:28.073Z,941.10
2018-11-27T11:06:35.980Z,941.13
2018-11-27T11:07:43.910Z,941.10
2018-11-27T11:08:51.988Z,941.10
2018-11-27T11:10:00.064Z,941.14
2018-11-27T11:11:08.284Z,941.09
2018-11-27T11:12:16.157Z,941.14
2018-11-27T11:13:24.485Z,941.11
2018-11-27T11:14:32.299Z,941.11
2018-11-27T11:15:40.364Z,941.11
2018-11-27T11:16:48.612Z,941.12
2018-11-27T11:17:56.677Z,941.13
2018-11-27T11:19:04.660Z,941.14
2018-11-27T11:20:12.629Z,941.14
2018-11-27T11:21:20.661Z,941.17
2018-11-27T11:22:29.012Z,941.18
2018-11-27T11:23:36.797Z,941.18
2018-11-27T11:24:44.905Z,941.19
2018-11-27T11:25:53.019Z,941.17
2018-11-27T11:27:01.060Z,941.20
2018-11-27T11:28:09.233Z,941.18
2018-11-27T11:29:17.092Z,941.16
2018-11-27T11:30:25.274Z,941.21
2018-11-27T11:31:33.202Z,941.23
2018-11-27T11:32:41.374Z,941.22
2018-11-27T11:33:49.344Z,941.18
2018-11-27T11:34:57.403Z,941.21
2018-11-27T11:36:05.462Z,941.24
2018-11-27T11:37:13.526Z,941.21
2018-11-27T11:38:21.685Z,941.23
2018-11-27T11:39:29.641Z,941.23
2018-11-27T11:40:37.705Z,941.24
2018-11-27T11:41:45.769Z,941.26
2018-11-27T11:42:53.806Z,941.23
2018-11-27T11:44:01.973Z,941.26
2018-11-27T11:45:09.949Z,941.24
2018-11-27T11:46:18.004Z,941.24
2018-11-27T11:47:26.067Z,941.25
2018-11-27T11:48:34.169Z,941.25
2018-11-27T11:49:42.288Z,941.26
2018-11-27T11:50:50.248Z,941.26
2018-11-27T11:51:58.317Z,941.24
2018-11-27T11:53:06.368Z,941.25
2018-11-27T11:54:14.423Z,941.30
2018-11-27T11:55:22.606Z,941.28
2018-11-27T11:56:30.594Z,941.28
2018-11-27T11:57:38.626Z,941.32
2018-11-27T11:58:46.685Z,941.28
2018-11-27T11:59:54.735Z,941.28
2018-11-27T12:01:02.895Z,941.31
2018-11-27T12:02:10.848Z,941.34
2018-11-27T12:03:18.933Z,941.35
2018-11-27T12:04:27.076Z,941.31
2018-11-27T12:05:35.046Z,941.37
2018-11-27T12:06:43.198Z,941.36
2018-11-27T12:07:51.162Z,941.36
2018-11-27T12:08:59.228Z,941.36
2018-11-27T12:10:07.281Z,941.34
2018-11-27T12:11:15.339Z,941.38
2018-11-27T12:12:23.505Z,941.42
2018-11-27T12:13:31.456Z,941.41
2018-11-27T12:14:39.531Z,941.40
2018-11-27T12:15:47.598Z,941.41
2018-11-27T12:16:55.661Z,941.44
2018-11-27T12:18:03.760Z,941.45
2018-11-27T12:19:11.805Z,941.43
2018-11-27T12:20:19.929Z,941.45
2018-11-27T12:21:27.915Z,941.49
2018-11-27T12:22:36.040Z,941.49
2018-11-27T12:23:44.000Z,941.48
2018-11-27T12:24:52.066Z,941.52
2018-11-27T12:26:00.128Z,941.52
2018-11-27T12:27:08.204Z,941.53
2018-11-27T12:28:16.350Z,941.50
2018-11-27T12:29:24.333Z,941.54
2018-11-27T12:30:32.374Z,941.53
2018-11-27T12:31:40.514Z,941.51
2018-11-27T12:32:48.691Z,941.48
2018-11-27T12:33:56.675Z,941.52
2018-11-27T12:35:04.732Z,941.51
2018-11-27T12:36:12.885Z,941.52
2018-11-27T12:37:20.753Z,941.52
2018-11-27T12:38:29.103Z,941.53
2018-11-27T12:39:36.863Z,941.53
2018-11-27T12:40:44.923Z,941.53
2018-11-27T12:41:53.099Z,941.56
2018-11-27T12:43:01.133Z,941.55
2018-11-27T12:44:09.202Z,941.55
2018-11-27T12:45:17.242Z,941.54
2018-11-27T12:46:25.350Z,941.57
2018-11-27T12:47:33.314Z,941.56
2018-11-27T12:48:41.342Z,941.62
2018-11-27T12:49:49.601Z,941.61
2018-11-27T12:50:57.467Z,941.62
2018-11-27T12:52:05.711Z,941.66
2018-11-27T12:53:16.662Z,941.62
2018-11-27T12:54:21.751Z,941.64
2018-11-27T12:55:29.917Z,941.62
2018-11-27T12:56:37.861Z,941.64
2018-11-27T12:57:45.816Z,941.64
2018-11-27T12:58:53.921Z,941.65
2018-11-27T13:00:01.952Z,941.67
2018-11-27T13:01:10.180Z,941.68
2018-11-27T13:02:18.074Z,941.68
2018-11-27T13:03:26.236Z,941.70
2018-11-27T13:04:34.170Z,941.70
2018-11-27T13:05:42.340Z,941.68
2018-11-27T13:06:50.514Z,941.70
2018-11-27T13:07:58.555Z,941.72
2018-11-27T13:09:06.481Z,941.74
2018-11-27T13:10:14.588Z,941.76
2018-11-27T13:11:22.549Z,941.75
2018-11-27T13:12:30.733Z,941.78
2018-11-27T13:13:38.682Z,941.78
2018-11-27T13:14:46.772Z,941.76
2018-11-27T13:15:54.853Z,941.78
2018-11-27T13:17:02.956Z,941.79
2018-11-27T13:18:11.239Z,941.80
2018-11-27T13:19:19.043Z,941.85
2018-11-27T13:20:27.117Z,941.83
2018-11-27T13:21:35.109Z,941.83
2018-11-27T13:22:43.538Z,941.83
2018-11-27T13:23:51.288Z,941.84
2018-11-27T13:24:59.287Z,941.82
2018-11-27T13:26:07.451Z,941.83
2018-11-27T13:27:15.441Z,941.85
2018-11-27T13:28:23.487Z,941.85
2018-11-27T13:29:31.562Z,941.86
2018-11-27T13:30:39.630Z,941.84
2018-11-27T13:31:47.738Z,941.85
2018-11-27T13:32:55.883Z,941.81
2018-11-27T13:34:03.742Z,941.85
2018-11-27T13:35:11.813Z,941.81
2018-11-27T13:36:19.971Z,941.78
2018-11-27T13:37:27.951Z,941.78
2018-11-27T13:38:36.105Z,941.79
2018-11-27T13:39:44.053Z,941.81
2018-11-27T13:40:52.207Z,941.84
2018-11-27T13:42:00.199Z,941.84
2018-11-27T13:43:08.349Z,941.84
2018-11-27T13:44:16.406Z,941.89
2018-11-27T13:45:24.424Z,941.87
2018-11-27T13:46:32.519Z,941.85
2018-11-27T13:47:40.557Z,941.87
2018-11-27T13:48:48.730Z,941.84
2018-11-27T13:49:56.615Z,941.85
2018-11-27T13:51:04.713Z,941.87
2018-11-27T13:52:12.711Z,941.89
2018-11-27T13:53:20.982Z,941.86
2018-11-27T13:54:29.120Z,941.88
2018-11-27T13:55:37.067Z,941.90
2018-11-27T13:56:45.042Z,941.91
2018-11-27T13:57:53.120Z,941.94
2018-11-27T13:59:01.070Z,941.94
2018-11-27T14:00:09.320Z,941.96
2018-11-27T14:01:17.193Z,941.97
2018-11-27T14:02:25.350Z,941.98
2018-11-27T14:03:33.433Z,941.99
2018-11-27T14:04:41.475Z,942.01
2018-11-27T14:05:49.611Z,941.97
2018-11-27T14:06:57.602Z,942.04
2018-11-27T14:08:05.653Z,942.04
2018-11-27T14:09:13.609Z,942.04